Terminal Aerodrome Forecast
Issued by NWS Charleston, WV

Current Version | Previous Version | Graphics & Text | Print | Product List | Glossary On
Versions: 1 2 3 4 5 6 7 8 9 10 11 12 13 14 15 16 17 18 19 20 21 22 23
000
FTUS41 KRLX 292339
TAFPKB
TAF
KPKB 292339Z 3000/3024 18004KT P6SM VCTS OVC050CB
      TEMPO 3000/3002 3SM TSRA BKN035CB
     FM300600 20004KT 6SM BR BKN030
     FM300900 21004KT 5SM BR BKN020
     FM301300 21005KT P6SM BKN020
     FM301700 23007KT P6SM VCTS BKN040CB=

USA.gov is the U.S. government's official web portal to all federal, state and local government web resources and services.